PIA233 OPIS-OMDB
Flight info
| Callsign | PIA233 |
|---|---|
| Flight time | N/A |
| Altitude | 36000 |
| Route | KALMI J139 HANGU G325 PG T385 TAPDO A454 PASOV B540 KUPMA/N0431F240 B540 MIVEK P574 IMPED |
| Aircraft | A320/M-SDE3FGHIRWY/LB1 |
Departure
| Time | 2026-04-29 02:21 |
|---|---|
| Airport | Islamabad International Airport (OPIS) |
Arrival
| Time | N/A |
|---|---|
| Airport | Dubai International Airport (OMDB) |
| Time | Latitude | Longitude | Altitude | Speed | Heading |
|---|---|---|---|---|---|
| 2026-04-29 02:01 | 33.55408 | 72.83589 | 1770 ft | 0 kts | 10° |
| 2026-04-29 02:11 | 33.55385 | 72.83584 | 1772 ft | 4 kts | 7° |
| 2026-04-29 02:11 | 33.55359 | 72.83581 | 1771 ft | 4 kts | 360° |
| 2026-04-29 02:11 | 33.55332 | 72.83585 | 1770 ft | 4 kts | 335° |
| 2026-04-29 02:11 | 33.55318 | 72.83600 | 1770 ft | 1 kts | 281° |
| 2026-04-29 02:14 | 33.55318 | 72.83591 | 1770 ft | 2 kts | 271° |
| 2026-04-29 02:15 | 33.55314 | 72.83574 | 1770 ft | 3 kts | 250° |
| 2026-04-29 02:15 | 33.55300 | 72.83554 | 1770 ft | 4 kts | 221° |
| 2026-04-29 02:15 | 33.55271 | 72.83542 | 1770 ft | 5 kts | 192° |
| 2026-04-29 02:15 | 33.55228 | 72.83531 | 1772 ft | 7 kts | 192° |
| 2026-04-29 02:16 | 33.55176 | 72.83520 | 1770 ft | 6 kts | 189° |
| 2026-04-29 02:16 | 33.55125 | 72.83509 | 1769 ft | 9 kts | 190° |
| 2026-04-29 02:16 | 33.55060 | 72.83516 | 1770 ft | 11 kts | 141° |
| 2026-04-29 02:16 | 33.55040 | 72.83600 | 1769 ft | 11 kts | 99° |
| 2026-04-29 02:17 | 33.55025 | 72.83698 | 1769 ft | 13 kts | 101° |
| 2026-04-29 02:17 | 33.55010 | 72.83787 | 1768 ft | 9 kts | 102° |
| 2026-04-29 02:17 | 33.54995 | 72.83870 | 1768 ft | 11 kts | 99° |
| 2026-04-29 02:17 | 33.54983 | 72.83966 | 1770 ft | 12 kts | 98° |
| 2026-04-29 02:18 | 33.54968 | 72.84072 | 1768 ft | 13 kts | 100° |
| 2026-04-29 02:18 | 33.54949 | 72.84187 | 1770 ft | 15 kts | 102° |
| 2026-04-29 02:18 | 33.54929 | 72.84313 | 1768 ft | 16 kts | 100° |
| 2026-04-29 02:18 | 33.54909 | 72.84425 | 1770 ft | 10 kts | 115° |
| 2026-04-29 02:19 | 33.54841 | 72.84439 | 1769 ft | 13 kts | 190° |
| 2026-04-29 02:19 | 33.54804 | 72.84429 | 1766 ft | 0 kts | 192° |
| 2026-04-29 02:19 | 33.54803 | 72.84429 | 1766 ft | 0 kts | 192° |
| 2026-04-29 02:19 | 33.54786 | 72.84425 | 1768 ft | 6 kts | 192° |
| 2026-04-29 02:20 | 33.54725 | 72.84393 | 1762 ft | 13 kts | 243° |
| 2026-04-29 02:20 | 33.54725 | 72.84329 | 1762 ft | 0 kts | 280° |
| 2026-04-29 02:20 | 33.54730 | 72.84302 | 1762 ft | 18 kts | 281° |
| 2026-04-29 02:20 | 33.54800 | 72.83848 | 1764 ft | 90 kts | 281° |
| 2026-04-29 02:21 | 33.54952 | 72.82876 | 1764 ft | 146 kts | 280° |
| 2026-04-29 02:21 | 33.55151 | 72.81536 | 1999 ft | 170 kts | 278° |
| 2026-04-29 02:21 | 33.55375 | 72.80130 | 2640 ft | 173 kts | 283° |
| 2026-04-29 02:21 | 33.55600 | 72.78718 | 3246 ft | 172 kts | 284° |
| 2026-04-29 02:22 | 33.55829 | 72.77271 | 3650 ft | 186 kts | 283° |
| 2026-04-29 02:22 | 33.56084 | 72.75660 | 3888 ft | 208 kts | 283° |
| 2026-04-29 02:22 | 33.56231 | 72.74483 | 4028 ft | 224 kts | 272° |
| 2026-04-29 02:22 | 33.56138 | 72.72518 | 4288 ft | 248 kts | 267° |
| 2026-04-29 02:23 | 33.55993 | 72.69614 | 4833 ft | 275 kts | 267° |
| 2026-04-29 02:23 | 33.55890 | 72.67296 | 5553 ft | 282 kts | 267° |
| 2026-04-29 02:23 | 33.55787 | 72.64932 | 6338 ft | 286 kts | 267° |
| 2026-04-29 02:23 | 33.55680 | 72.62533 | 7111 ft | 290 kts | 266° |
| 2026-04-29 02:24 | 33.55571 | 72.60103 | 7887 ft | 294 kts | 267° |
| 2026-04-29 02:24 | 33.55498 | 72.58481 | 8421 ft | 296 kts | 267° |
| 2026-04-29 02:24 | 33.55386 | 72.56008 | 9222 ft | 299 kts | 266° |
| 2026-04-29 02:25 | 33.55156 | 72.50911 | 10346 ft | 322 kts | 266° |
| 2026-04-29 02:25 | 33.54981 | 72.47179 | 10714 ft | 354 kts | 266° |
| 2026-04-29 02:25 | 33.54836 | 72.44144 | 11103 ft | 372 kts | 266° |
| 2026-04-29 02:25 | 33.54696 | 72.41017 | 11723 ft | 378 kts | 268° |
| 2026-04-29 02:26 | 33.54647 | 72.38921 | 12157 ft | 381 kts | 269° |
| 2026-04-29 02:26 | 33.54649 | 72.34646 | 13059 ft | 386 kts | 271° |
| 2026-04-29 02:26 | 33.54695 | 72.31418 | 13710 ft | 389 kts | 271° |
| 2026-04-29 02:26 | 33.54727 | 72.29269 | 14103 ft | 391 kts | 271° |
| 2026-04-29 02:27 | 33.54768 | 72.26003 | 14701 ft | 393 kts | 271° |
| 2026-04-29 02:27 | 33.54797 | 72.22719 | 15346 ft | 395 kts | 271° |
| 2026-04-29 02:27 | 33.54814 | 72.19419 | 15963 ft | 397 kts | 271° |
| 2026-04-29 02:27 | 33.54823 | 72.16097 | 16565 ft | 400 kts | 271° |
| 2026-04-29 02:28 | 33.54828 | 72.12800 | 17156 ft | 402 kts | 271° |
| 2026-04-29 02:28 | 33.54829 | 72.09431 | 17758 ft | 405 kts | 271° |
| 2026-04-29 02:28 | 33.54829 | 72.06044 | 18309 ft | 408 kts | 271° |
| 2026-04-29 02:28 | 33.54829 | 72.02632 | 18819 ft | 411 kts | 271° |
| 2026-04-29 02:29 | 33.54750 | 71.99201 | 19321 ft | 413 kts | 268° |
| 2026-04-29 02:29 | 33.54505 | 71.94630 | 19987 ft | 417 kts | 266° |
| 2026-04-29 02:29 | 33.54261 | 71.91162 | 20468 ft | 419 kts | 266° |
| 2026-04-29 02:29 | 33.54088 | 71.88807 | 20787 ft | 420 kts | 266° |
| 2026-04-29 02:30 | 33.53836 | 71.85309 | 21245 ft | 422 kts | 266° |
| 2026-04-29 02:30 | 33.53602 | 71.81840 | 21688 ft | 424 kts | 267° |
| 2026-04-29 02:30 | 33.53379 | 71.78302 | 22127 ft | 427 kts | 267° |
| 2026-04-29 02:30 | 33.53170 | 71.74747 | 22551 ft | 429 kts | 268° |
| 2026-04-29 02:31 | 33.52966 | 71.71173 | 22965 ft | 431 kts | 268° |
| 2026-04-29 02:31 | 33.52759 | 71.67577 | 23358 ft | 433 kts | 268° |
| 2026-04-29 02:31 | 33.52548 | 71.63965 | 23678 ft | 435 kts | 267° |
| 2026-04-29 02:31 | 33.52328 | 71.60339 | 24032 ft | 437 kts | 267° |
| 2026-04-29 02:32 | 33.52103 | 71.56704 | 24374 ft | 438 kts | 267° |
| 2026-04-29 02:32 | 33.51878 | 71.53109 | 24725 ft | 439 kts | 268° |
| 2026-04-29 02:32 | 33.51651 | 71.49459 | 25080 ft | 440 kts | 268° |
| 2026-04-29 02:32 | 33.51422 | 71.45800 | 25415 ft | 441 kts | 268° |
| 2026-04-29 02:33 | 33.51196 | 71.42134 | 25724 ft | 442 kts | 268° |
| 2026-04-29 02:33 | 33.50972 | 71.38456 | 26039 ft | 443 kts | 268° |
| 2026-04-29 02:33 | 33.50749 | 71.34767 | 26340 ft | 444 kts | 268° |
| 2026-04-29 02:33 | 33.50523 | 71.31071 | 26623 ft | 445 kts | 268° |
| 2026-04-29 02:34 | 33.50291 | 71.27366 | 26921 ft | 446 kts | 268° |
| 2026-04-29 02:34 | 33.50063 | 71.23704 | 27190 ft | 448 kts | 268° |
| 2026-04-29 02:34 | 33.49831 | 71.19980 | 27475 ft | 449 kts | 268° |
| 2026-04-29 02:34 | 33.49596 | 71.16244 | 27713 ft | 450 kts | 268° |
| 2026-04-29 02:35 | 33.49358 | 71.12501 | 27970 ft | 451 kts | 268° |
| 2026-04-29 02:35 | 33.49057 | 71.08765 | 28325 ft | 451 kts | 262° |
| 2026-04-29 02:35 | 33.48255 | 71.05133 | 28696 ft | 453 kts | 252° |
| 2026-04-29 02:35 | 33.46878 | 71.01738 | 29055 ft | 455 kts | 241° |
| 2026-04-29 02:36 | 33.44967 | 70.98704 | 29427 ft | 459 kts | 230° |
| 2026-04-29 02:36 | 33.42584 | 70.96147 | 29779 ft | 463 kts | 219° |
| 2026-04-29 02:36 | 33.39907 | 70.94086 | 30083 ft | 464 kts | 216° |
| 2026-04-29 02:36 | 33.37167 | 70.92052 | 30373 ft | 463 kts | 216° |
| 2026-04-29 02:37 | 33.34430 | 70.90018 | 30651 ft | 463 kts | 216° |
| 2026-04-29 02:37 | 33.31698 | 70.87985 | 30905 ft | 462 kts | 216° |
| 2026-04-29 02:37 | 33.28975 | 70.85957 | 31233 ft | 460 kts | 216° |
| 2026-04-29 02:37 | 33.26262 | 70.83933 | 31551 ft | 459 kts | 216° |
| 2026-04-29 02:38 | 33.23559 | 70.81917 | 31856 ft | 458 kts | 216° |
| 2026-04-29 02:38 | 33.20861 | 70.79907 | 32128 ft | 457 kts | 216° |
| 2026-04-29 02:38 | 33.18209 | 70.77933 | 32452 ft | 455 kts | 216° |
| 2026-04-29 02:38 | 33.15527 | 70.75945 | 32761 ft | 453 kts | 217° |
| 2026-04-29 02:39 | 33.12849 | 70.73961 | 33067 ft | 452 kts | 217° |
| 2026-04-29 02:39 | 33.10183 | 70.71983 | 33360 ft | 451 kts | 217° |
| 2026-04-29 02:39 | 33.07523 | 70.70007 | 33645 ft | 450 kts | 217° |
| 2026-04-29 02:39 | 33.04864 | 70.68033 | 33906 ft | 450 kts | 217° |
| 2026-04-29 02:40 | 33.02208 | 70.66066 | 34141 ft | 449 kts | 217° |
| 2026-04-29 02:40 | 32.99555 | 70.64106 | 34373 ft | 449 kts | 217° |
| 2026-04-29 02:40 | 32.96937 | 70.62175 | 34584 ft | 448 kts | 218° |
| 2026-04-29 02:40 | 32.94285 | 70.60223 | 34806 ft | 448 kts | 218° |
| 2026-04-29 02:41 | 32.91641 | 70.58267 | 35001 ft | 447 kts | 218° |
| 2026-04-29 02:41 | 32.89020 | 70.56282 | 35212 ft | 446 kts | 219° |
| 2026-04-29 02:41 | 32.86422 | 70.54280 | 35403 ft | 445 kts | 220° |
| 2026-04-29 02:41 | 32.83833 | 70.52273 | 35629 ft | 443 kts | 220° |
| 2026-04-29 02:42 | 32.81253 | 70.50277 | 35748 ft | 443 kts | 220° |
| 2026-04-29 02:42 | 32.76058 | 70.46290 | 35789 ft | 445 kts | 220° |
| 2026-04-29 02:43 | 32.70881 | 70.42340 | 35786 ft | 446 kts | 220° |
| 2026-04-29 02:43 | 32.65661 | 70.38367 | 35786 ft | 446 kts | 220° |
| 2026-04-29 02:44 | 32.60398 | 70.34451 | 35783 ft | 448 kts | 218° |
| 2026-04-29 02:44 | 32.55003 | 70.30720 | 35804 ft | 450 kts | 217° |
| 2026-04-29 02:45 | 32.49609 | 70.27061 | 35804 ft | 450 kts | 218° |
| 2026-04-29 02:45 | 32.44208 | 70.23338 | 35804 ft | 449 kts | 218° |
| 2026-04-29 02:46 | 32.38826 | 70.19589 | 35811 ft | 449 kts | 218° |
| 2026-04-29 02:46 | 32.33458 | 70.15823 | 35815 ft | 448 kts | 219° |
| 2026-04-29 02:47 | 32.28180 | 70.12006 | 35801 ft | 448 kts | 219° |
| 2026-04-29 02:47 | 32.22885 | 70.08143 | 35816 ft | 447 kts | 219° |
| 2026-04-29 02:48 | 32.17585 | 70.04307 | 35830 ft | 446 kts | 219° |
| 2026-04-29 02:48 | 32.12279 | 70.00496 | 35826 ft | 446 kts | 219° |
| 2026-04-29 02:49 | 32.07001 | 69.96719 | 35822 ft | 447 kts | 219° |
| 2026-04-29 02:49 | 32.01683 | 69.92919 | 35814 ft | 448 kts | 219° |
| 2026-04-29 02:50 | 31.96361 | 69.89108 | 35813 ft | 448 kts | 220° |
| 2026-04-29 02:50 | 31.91042 | 69.85298 | 35824 ft | 447 kts | 219° |
| 2026-04-29 02:51 | 31.85725 | 69.81504 | 35832 ft | 446 kts | 219° |
| 2026-04-29 02:51 | 31.80456 | 69.77752 | 35850 ft | 446 kts | 219° |
| 2026-04-29 02:52 | 31.75134 | 69.73963 | 35842 ft | 448 kts | 219° |
| 2026-04-29 02:52 | 31.69794 | 69.70171 | 35860 ft | 449 kts | 219° |
| 2026-04-29 02:53 | 31.64451 | 69.66381 | 35860 ft | 449 kts | 219° |
| 2026-04-29 02:53 | 31.59099 | 69.62595 | 35871 ft | 449 kts | 219° |
| 2026-04-29 02:54 | 31.53784 | 69.58830 | 35874 ft | 449 kts | 219° |
| 2026-04-29 02:54 | 31.48431 | 69.55039 | 35880 ft | 449 kts | 219° |
| 2026-04-29 02:55 | 31.43076 | 69.51262 | 35859 ft | 450 kts | 220° |
| 2026-04-29 02:55 | 31.37717 | 69.47488 | 35875 ft | 449 kts | 221° |
| 2026-04-29 02:55 | 31.35237 | 69.45355 | 35879 ft | 437 kts | 230° |
| 2026-04-29 02:56 | 31.33154 | 69.42891 | 35887 ft | 429 kts | 236° |
| 2026-04-29 02:56 | 31.29125 | 69.37735 | 35890 ft | 430 kts | 236° |
| 2026-04-29 02:57 | 31.25085 | 69.32585 | 35890 ft | 430 kts | 236° |
| 2026-04-29 02:57 | 31.21036 | 69.27445 | 35890 ft | 430 kts | 236° |
| 2026-04-29 02:58 | 31.17019 | 69.22342 | 35888 ft | 430 kts | 236° |
| 2026-04-29 02:58 | 31.12974 | 69.17201 | 35862 ft | 430 kts | 236° |
| 2026-04-29 02:59 | 31.08923 | 69.12072 | 35877 ft | 430 kts | 236° |
| 2026-04-29 02:59 | 31.04871 | 69.06944 | 35880 ft | 430 kts | 236° |
| 2026-04-29 03:00 | 31.00811 | 69.01827 | 35887 ft | 430 kts | 236° |
| 2026-04-29 03:00 | 30.96780 | 68.96744 | 35892 ft | 430 kts | 236° |
| 2026-04-29 03:01 | 30.92723 | 68.91631 | 35882 ft | 430 kts | 236° |
| 2026-04-29 03:01 | 30.88667 | 68.86523 | 35881 ft | 429 kts | 236° |
| 2026-04-29 03:02 | 30.84611 | 68.81428 | 35885 ft | 429 kts | 236° |
| 2026-04-29 03:02 | 30.80585 | 68.76378 | 35866 ft | 428 kts | 236° |
| 2026-04-29 03:03 | 30.76531 | 68.71297 | 35871 ft | 428 kts | 236° |
| 2026-04-29 03:03 | 30.72479 | 68.66222 | 35876 ft | 428 kts | 236° |
| 2026-04-29 03:04 | 30.68415 | 68.61151 | 35879 ft | 428 kts | 236° |
| 2026-04-29 03:04 | 30.64383 | 68.56117 | 35880 ft | 428 kts | 236° |
| 2026-04-29 03:05 | 30.60327 | 68.51057 | 35870 ft | 427 kts | 236° |
| 2026-04-29 03:05 | 30.56269 | 68.46011 | 35897 ft | 427 kts | 236° |
| 2026-04-29 03:06 | 30.52210 | 68.40970 | 35893 ft | 427 kts | 236° |
| 2026-04-29 03:06 | 30.48188 | 68.35959 | 35883 ft | 427 kts | 236° |
| 2026-04-29 03:07 | 30.44141 | 68.30933 | 35904 ft | 426 kts | 236° |
| 2026-04-29 03:07 | 30.40084 | 68.25925 | 35896 ft | 426 kts | 236° |
| 2026-04-29 03:08 | 30.36038 | 68.20921 | 35896 ft | 425 kts | 236° |
| 2026-04-29 03:08 | 30.31996 | 68.15917 | 35883 ft | 425 kts | 236° |
| 2026-04-29 03:09 | 30.27981 | 68.10960 | 35864 ft | 425 kts | 236° |
| 2026-04-29 03:09 | 30.23933 | 68.05978 | 35861 ft | 424 kts | 236° |
| 2026-04-29 03:10 | 30.19881 | 68.01004 | 35859 ft | 425 kts | 236° |
| 2026-04-29 03:10 | 30.15831 | 67.96023 | 35867 ft | 426 kts | 236° |
| 2026-04-29 03:11 | 30.11807 | 67.91072 | 35823 ft | 425 kts | 236° |
| 2026-04-29 03:11 | 30.07748 | 67.86096 | 35831 ft | 426 kts | 236° |
| 2026-04-29 03:12 | 30.03714 | 67.81106 | 35832 ft | 425 kts | 236° |
| 2026-04-29 03:12 | 29.99685 | 67.76112 | 35792 ft | 425 kts | 236° |
| 2026-04-29 03:13 | 29.95659 | 67.71129 | 35794 ft | 425 kts | 236° |
| 2026-04-29 03:13 | 29.91653 | 67.66175 | 35799 ft | 425 kts | 236° |
| 2026-04-29 03:14 | 29.87617 | 67.61194 | 35779 ft | 425 kts | 237° |
| 2026-04-29 03:14 | 29.83575 | 67.56212 | 35779 ft | 426 kts | 236° |
| 2026-04-29 03:15 | 29.79525 | 67.51243 | 35748 ft | 426 kts | 236° |
| 2026-04-29 03:15 | 29.75490 | 67.46298 | 35762 ft | 427 kts | 236° |
| 2026-04-29 03:16 | 29.71422 | 67.41309 | 35763 ft | 428 kts | 236° |
| 2026-04-29 03:16 | 29.67360 | 67.36308 | 35808 ft | 428 kts | 236° |
| 2026-04-29 03:17 | 29.63303 | 67.31315 | 35810 ft | 426 kts | 236° |
| 2026-04-29 03:17 | 29.59245 | 67.26322 | 35853 ft | 428 kts | 236° |
| 2026-04-29 03:18 | 29.55205 | 67.21364 | 35813 ft | 428 kts | 236° |
| 2026-04-29 03:18 | 29.51121 | 67.16375 | 35830 ft | 429 kts | 236° |
| 2026-04-29 03:19 | 29.47027 | 67.11381 | 35883 ft | 429 kts | 236° |
| 2026-04-29 03:19 | 29.42941 | 67.06384 | 35881 ft | 429 kts | 236° |
| 2026-04-29 03:20 | 29.38880 | 67.01429 | 35915 ft | 429 kts | 236° |
| 2026-04-29 03:20 | 29.34789 | 66.96442 | 35920 ft | 429 kts | 236° |
| 2026-04-29 03:21 | 29.30694 | 66.91456 | 35922 ft | 429 kts | 236° |
| 2026-04-29 03:21 | 29.26596 | 66.86478 | 35931 ft | 429 kts | 235° |
| 2026-04-29 03:22 | 29.22523 | 66.81534 | 35934 ft | 430 kts | 235° |
| 2026-04-29 03:22 | 29.18420 | 66.76556 | 35946 ft | 430 kts | 235° |
| 2026-04-29 03:23 | 29.14313 | 66.71583 | 35951 ft | 430 kts | 235° |
| 2026-04-29 03:23 | 29.10204 | 66.66614 | 35952 ft | 430 kts | 235° |
| 2026-04-29 03:24 | 29.06113 | 66.61686 | 35962 ft | 430 kts | 235° |
| 2026-04-29 03:24 | 29.01999 | 66.56724 | 35951 ft | 430 kts | 235° |
| 2026-04-29 03:25 | 28.97892 | 66.51759 | 35961 ft | 430 kts | 235° |
| 2026-04-29 03:25 | 28.93791 | 66.46801 | 35964 ft | 429 kts | 235° |
| 2026-04-29 03:26 | 28.89723 | 66.41881 | 35970 ft | 429 kts | 235° |
| 2026-04-29 03:26 | 28.85624 | 66.36933 | 35962 ft | 429 kts | 235° |
| 2026-04-29 03:27 | 28.81528 | 66.31987 | 35960 ft | 429 kts | 235° |
| 2026-04-29 03:27 | 28.77427 | 66.27048 | 35943 ft | 429 kts | 235° |
| 2026-04-29 03:28 | 28.73314 | 66.22116 | 35926 ft | 429 kts | 234° |
| 2026-04-29 03:28 | 28.69229 | 66.17220 | 35938 ft | 429 kts | 234° |
| 2026-04-29 03:29 | 28.65116 | 66.12289 | 35940 ft | 429 kts | 234° |
| 2026-04-29 03:29 | 28.63062 | 66.09828 | 35928 ft | 429 kts | 234° |